createdAt,value
2023-05-10T00:01:32.508Z,72.56
2023-05-10T00:04:36.982Z,72.47
2023-05-10T00:07:39.014Z,71.99
2023-05-10T00:10:43.586Z,72.19
2023-05-10T00:13:45.769Z,73.12
2023-05-10T00:16:48.139Z,73.22
2023-05-10T00:19:50.252Z,73.37
2023-05-10T00:22:52.577Z,74.66
2023-05-10T00:25:54.526Z,74.92
2023-05-10T00:28:57.828Z,75.34
2023-05-10T00:32:00.032Z,74.94
2023-05-10T00:35:02.478Z,75.33
2023-05-10T00:38:04.642Z,76.48
2023-05-10T00:41:07.578Z,76.46
2023-05-10T00:44:10.191Z,78.05
2023-05-10T00:47:12.748Z,79.01
2023-05-10T00:50:15.644Z,78.79
2023-05-10T00:53:18.879Z,78.71
2023-05-10T00:56:23.931Z,79.37
2023-05-10T00:59:26.844Z,79.83
2023-05-10T01:02:29.667Z,80.12
2023-05-10T01:05:32.887Z,80.32
2023-05-10T01:08:35.081Z,80.82
2023-05-10T01:11:39.104Z,80.68
2023-05-10T01:14:41.364Z,81.16
2023-05-10T01:17:45.765Z,81.86
2023-05-10T01:20:49.873Z,82.11
2023-05-10T01:24:05.006Z,81.66
2023-05-10T01:27:10.398Z,81.58
2023-05-10T01:30:16.001Z,81.30
2023-05-10T01:33:29.866Z,81.65
2023-05-10T01:36:32.147Z,81.67
2023-05-10T01:39:55.431Z,81.16
2023-05-10T01:43:02.411Z,80.76
2023-05-10T01:46:14.449Z,80.37
2023-05-10T01:49:22.357Z,80.54
2023-05-10T01:52:28.065Z,79.45
2023-05-10T01:55:33.116Z,80.57
2023-05-10T01:58:39.422Z,81.55
2023-05-10T02:01:43.733Z,81.03
2023-05-10T02:04:47.322Z,80.53
2023-05-10T02:07:50.346Z,80.10
2023-05-10T02:10:55.712Z,79.52
2023-05-10T02:13:58.251Z,78.83
2023-05-10T02:17:02.991Z,80.51
2023-05-10T02:20:07.345Z,80.25
2023-05-10T02:23:10.740Z,78.79
2023-05-10T02:26:14.453Z,79.03
2023-05-10T02:29:19.262Z,77.80
2023-05-10T02:32:22.544Z,79.46
2023-05-10T02:35:27.039Z,78.75
2023-05-10T02:38:29.326Z,76.75
2023-05-10T02:41:33.567Z,77.79
2023-05-10T02:44:37.343Z,77.11
2023-05-10T02:47:39.934Z,76.09
2023-05-10T02:50:44.050Z,75.23
2023-05-10T02:53:47.979Z,73.66
2023-05-10T02:56:56.325Z,74.08
2023-05-10T02:59:59.537Z,74.17
2023-05-10T03:03:02.389Z,74.21
2023-05-10T03:06:05.290Z,74.64
2023-05-10T03:09:08.781Z,75.16
2023-05-10T03:12:24.740Z,75.49
2023-05-10T03:15:36.485Z,75.54
2023-05-10T03:18:48.070Z,75.71
2023-05-10T03:21:52.284Z,75.61
2023-05-10T03:24:57.625Z,76.45
2023-05-10T03:28:02.355Z,78.18
2023-05-10T03:31:06.344Z,76.61
2023-05-10T03:34:09.219Z,76.87
2023-05-10T03:37:11.700Z,76.36
2023-05-10T03:40:14.180Z,75.68
2023-05-10T03:43:16.890Z,77.49
2023-05-10T03:46:19.085Z,77.19
2023-05-10T03:49:22.087Z,77.10
2023-05-10T03:52:24.204Z,77.41
2023-05-10T03:55:26.666Z,75.48
2023-05-10T03:58:29.060Z,76.37
2023-05-10T04:01:31.377Z,77.00
2023-05-10T04:04:33.703Z,75.43
2023-05-10T04:07:35.693Z,74.90
2023-05-10T04:10:38.493Z,75.45
2023-05-10T04:13:40.844Z,75.66
2023-05-10T04:16:43.532Z,75.39
2023-05-10T04:19:45.629Z,74.08
2023-05-10T04:22:47.870Z,75.15
2023-05-10T04:25:49.949Z,72.07
2023-05-10T04:28:52.360Z,71.50
2023-05-10T04:31:54.606Z,66.02
2023-05-10T04:34:56.929Z,57.34
2023-05-10T04:37:58.877Z,51.64
2023-05-10T04:41:04.730Z,48.16
2023-05-10T04:44:07.210Z,42.83
2023-05-10T04:47:12.510Z,41.58
2023-05-10T04:50:14.954Z,41.16
2023-05-10T04:53:17.364Z,38.68
2023-05-10T04:56:19.413Z,37.33
2023-05-10T04:59:21.653Z,36.29
2023-05-10T05:02:24.970Z,35.23
2023-05-10T05:05:27.312Z,34.67
2023-05-10T05:08:29.617Z,32.69
2023-05-10T05:11:32.089Z,35.04
2023-05-10T05:14:34.145Z,35.26
2023-05-10T05:17:36.852Z,35.47
2023-05-10T05:20:38.858Z,36.99
2023-05-10T05:23:41.305Z,41.06
2023-05-10T05:26:43.412Z,44.21
2023-05-10T05:29:46.020Z,44.37
2023-05-10T05:32:48.214Z,42.98
2023-05-10T05:35:51.827Z,40.32
2023-05-10T05:38:54.004Z,39.14
2023-05-10T05:41:56.240Z,36.63
2023-05-10T05:44:58.791Z,36.08
2023-05-10T05:48:01.309Z,33.93
2023-05-10T05:51:07.095Z,33.16
2023-05-10T05:54:10.245Z,33.13
2023-05-10T05:57:12.483Z,32.62
2023-05-10T06:00:15.082Z,32.36
2023-05-10T06:03:17.303Z,32.01
2023-05-10T06:06:19.874Z,31.54
2023-05-10T06:09:21.996Z,30.69
2023-05-10T06:12:24.456Z,29.18
2023-05-10T06:15:27.384Z,29.96
2023-05-10T06:18:29.644Z,28.73
2023-05-10T06:21:31.695Z,28.69
2023-05-10T06:24:34.092Z,28.90
2023-05-10T06:27:36.176Z,29.28
2023-05-10T06:30:39.109Z,30.29
2023-05-10T06:33:41.633Z,29.16
2023-05-10T06:36:44.006Z,28.97
2023-05-10T06:39:46.165Z,28.52
2023-05-10T06:42:49.082Z,29.32
2023-05-10T06:45:51.225Z,30.71
2023-05-10T06:48:53.710Z,30.89
2023-05-10T06:51:56.768Z,29.74
2023-05-10T06:54:59.190Z,29.20
2023-05-10T06:58:01.173Z,29.45
2023-05-10T07:01:04.261Z,28.64
2023-05-10T07:04:08.368Z,29.07
2023-05-10T07:07:10.649Z,28.24
2023-05-10T07:10:12.676Z,30.09
2023-05-10T07:13:15.191Z,31.36
2023-05-10T07:16:17.594Z,33.21
2023-05-10T07:19:20.496Z,32.54
2023-05-10T07:22:22.472Z,35.41
2023-05-10T07:25:25.122Z,38.29
2023-05-10T07:28:27.152Z,38.36
2023-05-10T07:31:29.757Z,39.38
2023-05-10T07:34:32.723Z,41.97
2023-05-10T07:37:35.023Z,39.56
2023-05-10T07:40:37.350Z,37.58
2023-05-10T07:43:39.641Z,35.51
2023-05-10T07:46:41.725Z,38.49
2023-05-10T07:49:44.474Z,37.69
2023-05-10T07:52:46.486Z,37.52
2023-05-10T07:55:52.748Z,38.20
2023-05-10T07:58:55.249Z,41.27
2023-05-10T08:01:57.655Z,40.46
2023-05-10T08:04:59.942Z,41.47
2023-05-10T08:08:02.064Z,44.33
2023-05-10T08:11:04.816Z,46.30
2023-05-10T08:14:07.015Z,46.12
2023-05-10T08:17:09.561Z,44.44
2023-05-10T08:20:13.730Z,43.93
2023-05-10T08:23:16.485Z,45.04
2023-05-10T08:26:18.490Z,45.48
2023-05-10T08:29:20.942Z,44.21
2023-05-10T08:32:23.025Z,45.32
2023-05-10T08:35:25.709Z,45.52
2023-05-10T08:38:28.095Z,46.10
2023-05-10T08:41:31.005Z,45.70
2023-05-10T08:44:33.430Z,47.14
2023-05-10T08:47:37.060Z,47.93
2023-05-10T08:50:42.882Z,46.77
2023-05-10T08:53:45.789Z,44.61
2023-05-10T08:56:49.836Z,45.22
2023-05-10T08:59:52.912Z,45.84
2023-05-10T09:02:55.235Z,46.42
2023-05-10T09:05:58.400Z,47.23
2023-05-10T09:09:00.959Z,47.44
2023-05-10T09:12:03.277Z,48.44
2023-05-10T09:15:07.053Z,46.92
2023-05-10T09:18:09.563Z,46.91
2023-05-10T09:21:11.769Z,47.69
2023-05-10T09:24:14.009Z,50.14
2023-05-10T09:27:16.023Z,46.88
2023-05-10T09:30:23.963Z,44.91
2023-05-10T09:33:26.338Z,45.13
2023-05-10T09:36:28.885Z,43.36
2023-05-10T09:39:35.697Z,43.45
2023-05-10T09:42:41.827Z,46.56
2023-05-10T09:45:43.807Z,44.63
2023-05-10T09:48:47.344Z,46.10
2023-05-10T09:52:00.372Z,44.94
2023-05-10T09:55:03.612Z,44.87
2023-05-10T09:58:10.365Z,43.41
2023-05-10T10:01:15.376Z,43.45
2023-05-10T10:04:17.827Z,44.96
2023-05-10T10:07:23.356Z,44.21
2023-05-10T10:10:26.629Z,44.70
2023-05-10T10:13:28.641Z,40.86
2023-05-10T10:16:31.585Z,40.53
2023-05-10T10:19:37.927Z,42.38
2023-05-10T10:22:40.732Z,43.00
2023-05-10T10:25:43.254Z,43.68
2023-05-10T10:28:46.997Z,41.40
2023-05-10T10:32:00.149Z,42.53
2023-05-10T10:35:10.440Z,42.73
2023-05-10T10:38:13.819Z,43.22
2023-05-10T10:41:30.074Z,41.18
2023-05-10T10:44:33.035Z,42.44
2023-05-10T10:47:37.917Z,41.18
2023-05-10T10:50:49.598Z,40.81
2023-05-10T10:53:52.551Z,40.64
2023-05-10T10:57:11.982Z,40.95
2023-05-10T11:00:29.123Z,41.36
2023-05-10T11:03:32.433Z,41.56
2023-05-10T11:06:36.509Z,41.04
2023-05-10T11:09:43.693Z,41.51
2023-05-10T11:12:55.180Z,42.58
2023-05-10T11:16:11.091Z,42.75
2023-05-10T11:19:17.743Z,41.71
2023-05-10T11:22:22.430Z,42.01
2023-05-10T11:25:27.756Z,42.76
2023-05-10T11:28:31.326Z,40.34
2023-05-10T11:31:38.714Z,40.65
2023-05-10T11:34:42.689Z,39.62
2023-05-10T11:37:49.174Z,39.43
2023-05-10T11:40:52.717Z,39.16
2023-05-10T11:43:55.683Z,40.16
2023-05-10T11:46:59.586Z,39.13
2023-05-10T11:50:02.472Z,39.46
2023-05-10T11:53:05.209Z,40.47
2023-05-10T11:56:08.478Z,39.38
2023-05-10T11:59:11.096Z,38.83
2023-05-10T12:02:16.611Z,39.62
2023-05-10T12:05:19.070Z,38.84
2023-05-10T12:08:22.421Z,38.65
2023-05-10T12:11:28.649Z,39.59
2023-05-10T12:14:34.874Z,38.27
2023-05-10T12:17:38.195Z,38.60
2023-05-10T12:20:41.501Z,38.11
2023-05-10T12:23:46.114Z,39.35
2023-05-10T12:26:54.398Z,39.24
2023-05-10T12:30:00.907Z,39.87
2023-05-10T12:33:08.290Z,38.86
2023-05-10T12:36:11.621Z,39.35
2023-05-10T12:39:13.680Z,39.96
2023-05-10T12:42:15.993Z,39.25
2023-05-10T12:45:18.667Z,39.09
2023-05-10T12:48:21.240Z,37.67
2023-05-10T12:51:23.720Z,39.14
2023-05-10T12:54:26.156Z,39.28
2023-05-10T12:57:28.757Z,38.13
2023-05-10T13:00:30.984Z,39.22
2023-05-10T13:03:33.123Z,40.25
2023-05-10T13:06:36.096Z,40.42
2023-05-10T13:09:38.042Z,40.87
2023-05-10T13:12:40.350Z,41.21
2023-05-10T13:15:42.362Z,40.84
2023-05-10T13:18:44.712Z,37.92
2023-05-10T13:21:46.764Z,38.54
2023-05-10T13:24:49.047Z,38.89
2023-05-10T13:27:51.132Z,38.27
2023-05-10T13:30:53.397Z,39.06
2023-05-10T13:33:55.507Z,39.05
2023-05-10T13:36:58.169Z,38.67
2023-05-10T13:40:00.156Z,39.52
2023-05-10T13:43:02.956Z,39.30
2023-05-10T13:46:05.018Z,38.61
2023-05-10T13:49:07.441Z,38.34
2023-05-10T13:52:10.933Z,37.25
2023-05-10T13:55:14.160Z,37.28
2023-05-10T13:58:16.129Z,37.44
2023-05-10T14:01:18.442Z,37.72
2023-05-10T14:04:20.729Z,37.38
2023-05-10T14:07:22.686Z,38.42
2023-05-10T14:10:24.954Z,38.34
2023-05-10T14:13:27.201Z,38.07
2023-05-10T14:16:29.726Z,38.34
2023-05-10T14:19:33.527Z,36.49
2023-05-10T14:22:36.307Z,36.50
2023-05-10T14:25:39.035Z,36.71
2023-05-10T14:28:41.673Z,35.90
2023-05-10T14:31:44.065Z,36.54
2023-05-10T14:34:46.621Z,36.81
2023-05-10T14:37:48.663Z,35.37
2023-05-10T14:40:54.097Z,35.86
2023-05-10T14:43:56.240Z,35.07
2023-05-10T14:46:58.471Z,35.22
2023-05-10T14:50:08.250Z,34.46
2023-05-10T14:53:10.749Z,35.30
2023-05-10T14:56:12.763Z,35.59
2023-05-10T14:59:15.210Z,35.54
2023-05-10T15:02:17.693Z,35.51
2023-05-10T15:05:20.778Z,34.91
2023-05-10T15:08:23.085Z,36.19
2023-05-10T15:11:25.319Z,36.65
2023-05-10T15:14:27.273Z,37.92
2023-05-10T15:17:29.492Z,36.87
2023-05-10T15:20:31.471Z,37.90
2023-05-10T15:23:33.770Z,38.18
2023-05-10T15:26:35.721Z,38.60
2023-05-10T15:29:37.957Z,37.21
2023-05-10T15:32:41.031Z,37.73
2023-05-10T15:35:43.288Z,37.64
2023-05-10T15:38:45.219Z,37.48
2023-05-10T15:41:48.087Z,36.54
2023-05-10T15:44:51.180Z,37.11
2023-05-10T15:47:53.430Z,36.25
2023-05-10T15:50:56.826Z,37.00
2023-05-10T15:54:06.939Z,37.28
2023-05-10T15:57:09.970Z,36.85
2023-05-10T16:00:13.029Z,37.33
2023-05-10T16:03:14.886Z,37.35
2023-05-10T16:06:17.412Z,37.28
2023-05-10T16:09:19.392Z,37.49
2023-05-10T16:12:21.816Z,38.18
2023-05-10T16:15:23.776Z,39.18
2023-05-10T16:18:26.273Z,38.28
2023-05-10T16:21:29.770Z,39.31
2023-05-10T16:24:32.098Z,38.89
2023-05-10T16:27:34.077Z,38.18
2023-05-10T16:30:36.426Z,38.57
2023-05-10T16:33:38.437Z,38.88
2023-05-10T16:36:41.107Z,37.79
2023-05-10T16:39:43.096Z,38.42
2023-05-10T16:42:45.419Z,37.76
2023-05-10T16:45:47.404Z,38.57
2023-05-10T16:48:49.704Z,37.66
2023-05-10T16:51:51.687Z,38.41
2023-05-10T16:54:57.166Z,39.90
2023-05-10T16:58:00.876Z,41.11
2023-05-10T17:01:03.409Z,41.75
2023-05-10T17:04:05.653Z,42.47
2023-05-10T17:07:08.682Z,44.36
2023-05-10T17:10:11.059Z,43.24
2023-05-10T17:13:13.306Z,44.05
2023-05-10T17:16:15.333Z,43.71
2023-05-10T17:19:17.647Z,44.56
2023-05-10T17:22:19.750Z,44.36
2023-05-10T17:25:22.073Z,45.79
2023-05-10T17:28:24.012Z,45.61
2023-05-10T17:31:26.748Z,45.87
2023-05-10T17:34:28.936Z,46.29
2023-05-10T17:37:32.987Z,47.24
2023-05-10T17:40:34.983Z,47.73
2023-05-10T17:43:37.251Z,47.88
2023-05-10T17:46:39.386Z,48.39
2023-05-10T17:49:42.046Z,48.71
2023-05-10T17:52:44.108Z,48.58
2023-05-10T17:55:47.048Z,49.70
2023-05-10T17:58:50.408Z,48.98
2023-05-10T18:01:52.792Z,49.08
2023-05-10T18:04:56.743Z,48.59
2023-05-10T18:08:00.215Z,49.22
2023-05-10T18:11:02.430Z,49.75
2023-05-10T18:14:04.664Z,49.73
2023-05-10T18:17:07.105Z,50.02
2023-05-10T18:20:09.967Z,49.88
2023-05-10T18:23:12.861Z,50.15
2023-05-10T18:26:14.888Z,49.67
2023-05-10T18:29:17.219Z,50.74
2023-05-10T18:32:19.172Z,50.14
2023-05-10T18:35:21.918Z,50.03
2023-05-10T18:38:24.272Z,50.54
2023-05-10T18:41:26.932Z,50.82
2023-05-10T18:44:29.160Z,50.96
2023-05-10T18:47:31.885Z,49.94
2023-05-10T18:50:33.820Z,50.54
2023-05-10T18:53:36.665Z,50.47
2023-05-10T18:56:44.342Z,50.73
2023-05-10T18:59:46.766Z,50.12
2023-05-10T19:02:48.903Z,49.68
2023-05-10T19:05:51.371Z,50.49
2023-05-10T19:08:53.490Z,49.71
2023-05-10T19:11:56.030Z,49.05
2023-05-10T19:14:57.957Z,49.44
2023-05-10T19:18:00.247Z,49.18
2023-05-10T19:21:04.526Z,48.42
2023-05-10T19:24:06.993Z,48.55
2023-05-10T19:27:09.199Z,49.80
2023-05-10T19:30:11.818Z,49.63
2023-05-10T19:33:13.804Z,49.32
2023-05-10T19:36:16.144Z,49.33
2023-05-10T19:39:18.160Z,49.45
2023-05-10T19:42:20.512Z,48.78
2023-05-10T19:45:22.815Z,48.66
2023-05-10T19:48:25.497Z,48.62
2023-05-10T19:51:27.561Z,49.54
2023-05-10T19:54:29.843Z,49.59
2023-05-10T19:57:31.796Z,48.78
2023-05-10T20:00:34.221Z,49.61
2023-05-10T20:03:36.567Z,49.08
2023-05-10T20:06:38.661Z,49.44
2023-05-10T20:09:42.465Z,48.36
2023-05-10T20:12:52.491Z,49.54
2023-05-10T20:15:55.847Z,50.28
2023-05-10T20:18:57.911Z,50.48
2023-05-10T20:22:00.241Z,50.92
2023-05-10T20:25:02.312Z,50.13
2023-05-10T20:28:05.824Z,51.03
2023-05-10T20:31:07.963Z,51.98
2023-05-10T20:34:10.322Z,51.89
2023-05-10T20:37:12.231Z,52.52
2023-05-10T20:40:14.474Z,52.20
2023-05-10T20:43:16.455Z,51.89
2023-05-10T20:46:18.812Z,51.93
2023-05-10T20:49:21.031Z,52.84
2023-05-10T20:52:24.620Z,52.95
2023-05-10T20:55:26.997Z,53.47
2023-05-10T20:58:29.329Z,52.43
2023-05-10T21:01:31.889Z,53.20
2023-05-10T21:04:34.302Z,53.58
2023-05-10T21:07:36.447Z,53.80
2023-05-10T21:10:38.832Z,53.82
2023-05-10T21:13:40.796Z,52.78
2023-05-10T21:16:43.350Z,53.72
2023-05-10T21:19:45.588Z,53.72
2023-05-10T21:22:47.903Z,53.38
2023-05-10T21:25:49.891Z,54.19
2023-05-10T21:28:52.784Z,52.88
2023-05-10T21:31:54.757Z,54.14
2023-05-10T21:34:57.171Z,53.60
2023-05-10T21:37:59.089Z,53.08
2023-05-10T21:41:01.863Z,53.00
2023-05-10T21:44:03.946Z,52.12
2023-05-10T21:47:06.234Z,52.38
2023-05-10T21:50:10.350Z,52.60
2023-05-10T21:53:12.617Z,52.29
2023-05-10T21:56:14.553Z,52.37
2023-05-10T21:59:18.013Z,50.72
2023-05-10T22:02:20.178Z,51.75
2023-05-10T22:05:22.547Z,52.31
2023-05-10T22:08:24.523Z,52.48
2023-05-10T22:11:27.426Z,52.69
2023-05-10T22:14:29.369Z,52.14
2023-05-10T22:17:31.743Z,51.16
2023-05-10T22:20:33.750Z,51.21
2023-05-10T22:23:36.172Z,50.51
2023-05-10T22:26:38.278Z,50.75
2023-05-10T22:29:40.588Z,51.95
2023-05-10T22:32:42.625Z,51.84
2023-05-10T22:35:44.880Z,52.36
2023-05-10T22:38:47.075Z,51.54
2023-05-10T22:41:49.302Z,52.42
2023-05-10T22:44:51.311Z,52.05
2023-05-10T22:47:53.687Z,49.63
2023-05-10T22:50:55.793Z,51.49
2023-05-10T22:53:58.097Z,49.88
2023-05-10T22:57:00.136Z,50.70
2023-05-10T23:00:04.400Z,50.53
2023-05-10T23:03:06.807Z,49.84
2023-05-10T23:06:09.121Z,50.04
2023-05-10T23:09:11.606Z,50.90
2023-05-10T23:12:13.903Z,50.73
2023-05-10T23:15:16.011Z,51.24
2023-05-10T23:18:18.344Z,52.33
2023-05-10T23:21:20.437Z,52.48
2023-05-10T23:24:22.858Z,52.86
2023-05-10T23:27:28.160Z,54.17
2023-05-10T23:30:30.897Z,54.18
2023-05-10T23:33:32.908Z,54.00
2023-05-10T23:36:35.122Z,54.05
2023-05-10T23:39:37.236Z,54.39
2023-05-10T23:42:39.558Z,54.62
2023-05-10T23:45:41.884Z,54.87
2023-05-10T23:48:44.274Z,54.87
2023-05-10T23:51:46.393Z,55.10
2023-05-10T23:54:48.765Z,54.82
2023-05-10T23:57:51.122Z,55.50
